Cat Lake, Canada
Current Conditions -  °F | °C
As of 4:00 PM on Tuesday 21 Oct 2014 (Local Time) from CYPL Reporting Station
Clear Clear  
Wind Chill: 40°   Ceiling: Unl
Heat Index: 46°   Visibility: 15mi
Dew Point: 30°   Wind: 15mph
Humidity: 53%   Direction: 190°S
Pressure: 30.14"   Gusts: 23mph
Location:  51.72°N, 91.8°W
Report Text: CYPL 212100Z 19013G20KT 15SM SKC 08/M01 A3014 RMK SLP222
Loading
Personal Weather Stations






























Interactive Weather Map
Tropical Storm Tracking
New forecast layout! Learn more

10-Day Weather Forecast

Advertisements
Track Severe Weather on mobile